EWG14PJ LFLL-EDDL
Flight info
| Callsign | EWG14PJ |
|---|---|
| Flight time | 1h 5m |
| Altitude | 32000 |
| Route | RISOR T45 VENAT T330 GILIR DCT PENDU DCT IXILU DCT EPL DCT ROUSY DCT DIK/N0448F310 N853 ARCKY T853 NVO T857 BIKMU BIKMU1A |
| Aircraft | A319/M-SDE3FGHIRWY/LB1 |
Departure
| Time | 2026-05-05 15:20 |
|---|---|
| Airport | Lyon Saint-Exupéry Airport (LFLL) |
Arrival
| Time | 2026-05-05 16:25 |
|---|---|
| Airport | Düsseldorf Airport (EDDL) |
| Time | Latitude | Longitude | Altitude | Speed | Heading |
|---|---|---|---|---|---|
| 2026-05-05 13:20 | 45.72214 | 5.08185 | 797 ft | 0 kts | 249° |
| 2026-05-05 15:11 | 45.72218 | 5.08201 | 797 ft | 4 kts | 249° |
| 2026-05-05 15:11 | 45.72228 | 5.08236 | 797 ft | 4 kts | 249° |
| 2026-05-05 15:11 | 45.72237 | 5.08273 | 797 ft | 4 kts | 257° |
| 2026-05-05 15:11 | 45.72238 | 5.08307 | 798 ft | 4 kts | 324° |
| 2026-05-05 15:12 | 45.72215 | 5.08317 | 798 ft | 4 kts | 356° |
| 2026-05-05 15:12 | 45.72208 | 5.08318 | 798 ft | 0 kts | 355° |
| 2026-05-05 15:14 | 45.72209 | 5.08318 | 798 ft | 1 kts | 355° |
| 2026-05-05 15:14 | 45.72217 | 5.08317 | 798 ft | 2 kts | 356° |
| 2026-05-05 15:14 | 45.72238 | 5.08323 | 798 ft | 4 kts | 22° |
| 2026-05-05 15:15 | 45.72252 | 5.08339 | 798 ft | 4 kts | 46° |
| 2026-05-05 15:15 | 45.72262 | 5.08372 | 799 ft | 4 kts | 73° |
| 2026-05-05 15:15 | 45.72287 | 5.08417 | 799 ft | 8 kts | 24° |
| 2026-05-05 15:15 | 45.72354 | 5.08414 | 799 ft | 12 kts | 355° |
| 2026-05-05 15:16 | 45.72457 | 5.08402 | 797 ft | 17 kts | 355° |
| 2026-05-05 15:16 | 45.72590 | 5.08385 | 795 ft | 21 kts | 355° |
| 2026-05-05 15:16 | 45.72760 | 5.08364 | 791 ft | 26 kts | 355° |
| 2026-05-05 15:16 | 45.72952 | 5.08341 | 789 ft | 29 kts | 355° |
| 2026-05-05 15:17 | 45.73157 | 5.08316 | 785 ft | 30 kts | 355° |
| 2026-05-05 15:17 | 45.73364 | 5.08291 | 781 ft | 30 kts | 355° |
| 2026-05-05 15:17 | 45.73544 | 5.08270 | 780 ft | 20 kts | 354° |
| 2026-05-05 15:17 | 45.73654 | 5.08256 | 778 ft | 14 kts | 356° |
| 2026-05-05 15:18 | 45.73723 | 5.08323 | 777 ft | 12 kts | 66° |
| 2026-05-05 15:18 | 45.73724 | 5.08417 | 778 ft | 8 kts | 102° |
| 2026-05-05 15:18 | 45.73711 | 5.08490 | 777 ft | 8 kts | 104° |
| 2026-05-05 15:18 | 45.73696 | 5.08577 | 777 ft | 9 kts | 104° |
| 2026-05-05 15:19 | 45.73684 | 5.08641 | 777 ft | 5 kts | 106° |
| 2026-05-05 15:19 | 45.73670 | 5.08693 | 777 ft | 6 kts | 116° |
| 2026-05-05 15:19 | 45.73643 | 5.08718 | 778 ft | 3 kts | 163° |
| 2026-05-05 15:19 | 45.73588 | 5.08727 | 780 ft | 31 kts | 175° |
| 2026-05-05 15:20 | 45.73103 | 5.08785 | 790 ft | 107 kts | 175° |
| 2026-05-05 15:20 | 45.72156 | 5.08900 | 915 ft | 154 kts | 181° |
| 2026-05-05 15:20 | 45.71094 | 5.09015 | 1697 ft | 153 kts | 178° |
| 2026-05-05 15:20 | 45.70009 | 5.09126 | 2396 ft | 163 kts | 179° |
| 2026-05-05 15:21 | 45.68800 | 5.09267 | 2874 ft | 185 kts | 178° |
| 2026-05-05 15:21 | 45.67438 | 5.09434 | 3341 ft | 207 kts | 178° |
| 2026-05-05 15:21 | 45.65927 | 5.09619 | 3917 ft | 226 kts | 177° |
| 2026-05-05 15:21 | 45.64338 | 5.09815 | 4868 ft | 232 kts | 177° |
| 2026-05-05 15:22 | 45.62720 | 5.10046 | 5906 ft | 236 kts | 173° |
| 2026-05-05 15:22 | 45.61178 | 5.11115 | 6586 ft | 265 kts | 139° |
| 2026-05-05 15:22 | 45.60279 | 5.13490 | 7446 ft | 285 kts | 104° |
| 2026-05-05 15:22 | 45.60355 | 5.16375 | 8470 ft | 295 kts | 83° |
| 2026-05-05 15:23 | 45.60518 | 5.19271 | 9485 ft | 296 kts | 98° |
| 2026-05-05 15:23 | 45.60039 | 5.22127 | 10299 ft | 302 kts | 111° |
| 2026-05-05 15:23 | 45.59358 | 5.25097 | 10703 ft | 326 kts | 112° |
| 2026-05-05 15:23 | 45.58621 | 5.28268 | 11191 ft | 344 kts | 112° |
| 2026-05-05 15:24 | 45.57861 | 5.31549 | 11968 ft | 351 kts | 111° |
| 2026-05-05 15:24 | 45.57097 | 5.34883 | 12825 ft | 356 kts | 111° |
| 2026-05-05 15:24 | 45.56323 | 5.38273 | 13680 ft | 362 kts | 112° |
| 2026-05-05 15:24 | 45.55537 | 5.41707 | 14437 ft | 366 kts | 112° |
| 2026-05-05 15:25 | 45.54741 | 5.45177 | 15163 ft | 371 kts | 112° |
| 2026-05-05 15:25 | 45.53934 | 5.48690 | 15913 ft | 375 kts | 112° |
| 2026-05-05 15:25 | 45.53112 | 5.52242 | 16667 ft | 379 kts | 112° |
| 2026-05-05 15:25 | 45.52281 | 5.55830 | 17411 ft | 383 kts | 112° |
| 2026-05-05 15:26 | 45.51473 | 5.59470 | 18144 ft | 389 kts | 108° |
| 2026-05-05 15:26 | 45.51038 | 5.63322 | 18774 ft | 399 kts | 97° |
| 2026-05-05 15:26 | 45.51120 | 5.67314 | 19395 ft | 408 kts | 86° |
| 2026-05-05 15:26 | 45.51512 | 5.71337 | 20021 ft | 412 kts | 85° |
| 2026-05-05 15:27 | 45.51902 | 5.75418 | 20643 ft | 417 kts | 85° |
| 2026-05-05 15:27 | 45.52285 | 5.79541 | 21255 ft | 422 kts | 85° |
| 2026-05-05 15:27 | 45.52666 | 5.83715 | 21879 ft | 426 kts | 85° |
| 2026-05-05 15:27 | 45.53141 | 5.87921 | 22445 ft | 433 kts | 79° |
| 2026-05-05 15:28 | 45.54123 | 5.92022 | 22994 ft | 442 kts | 67° |
| 2026-05-05 15:28 | 45.55661 | 5.95855 | 23511 ft | 448 kts | 55° |
| 2026-05-05 15:28 | 45.57712 | 5.99248 | 23976 ft | 453 kts | 43° |
| 2026-05-05 15:28 | 45.60158 | 6.02005 | 24431 ft | 456 kts | 32° |
| 2026-05-05 15:29 | 45.62867 | 6.04399 | 24905 ft | 459 kts | 30° |
| 2026-05-05 15:29 | 45.65602 | 6.06812 | 25335 ft | 463 kts | 30° |
| 2026-05-05 15:29 | 45.68357 | 6.09217 | 25767 ft | 465 kts | 27° |
| 2026-05-05 15:29 | 45.71351 | 6.10931 | 26192 ft | 464 kts | 11° |
| 2026-05-05 15:30 | 45.74539 | 6.11474 | 26674 ft | 460 kts | 355° |
| 2026-05-05 15:30 | 45.77746 | 6.11328 | 27143 ft | 462 kts | 353° |
| 2026-05-05 15:30 | 45.80965 | 6.11159 | 27604 ft | 464 kts | 353° |
| 2026-05-05 15:30 | 45.84202 | 6.10983 | 28044 ft | 467 kts | 353° |
| 2026-05-05 15:31 | 45.87468 | 6.10809 | 28470 ft | 471 kts | 353° |
| 2026-05-05 15:31 | 45.90752 | 6.10644 | 28903 ft | 474 kts | 354° |
| 2026-05-05 15:31 | 45.94061 | 6.10481 | 29329 ft | 477 kts | 354° |
| 2026-05-05 15:31 | 45.97389 | 6.10318 | 29732 ft | 480 kts | 354° |
| 2026-05-05 15:32 | 46.00735 | 6.10156 | 30093 ft | 483 kts | 354° |
| 2026-05-05 15:32 | 46.04110 | 6.09991 | 30430 ft | 486 kts | 354° |
| 2026-05-05 15:32 | 46.07495 | 6.09822 | 30755 ft | 488 kts | 354° |
| 2026-05-05 15:32 | 46.10894 | 6.09650 | 31122 ft | 489 kts | 354° |
| 2026-05-05 15:33 | 46.14285 | 6.09480 | 31580 ft | 487 kts | 354° |
| 2026-05-05 15:33 | 46.17673 | 6.09311 | 32035 ft | 487 kts | 354° |
| 2026-05-05 15:33 | 46.21051 | 6.09141 | 32497 ft | 486 kts | 354° |
| 2026-05-05 15:33 | 46.24430 | 6.08969 | 32955 ft | 485 kts | 354° |
| 2026-05-05 15:34 | 46.27798 | 6.08802 | 33410 ft | 484 kts | 354° |
| 2026-05-05 15:34 | 46.31169 | 6.08635 | 33874 ft | 484 kts | 354° |
| 2026-05-05 15:34 | 46.34534 | 6.08471 | 34271 ft | 483 kts | 354° |
| 2026-05-05 15:34 | 46.37895 | 6.08303 | 34675 ft | 482 kts | 354° |
| 2026-05-05 15:35 | 46.41263 | 6.08131 | 35057 ft | 481 kts | 354° |
| 2026-05-05 15:35 | 46.44589 | 6.07955 | 35431 ft | 481 kts | 354° |
| 2026-05-05 15:35 | 46.47889 | 6.07780 | 35786 ft | 480 kts | 354° |
| 2026-05-05 15:35 | 46.51231 | 6.07602 | 36139 ft | 480 kts | 354° |
| 2026-05-05 15:36 | 46.54564 | 6.07430 | 36488 ft | 479 kts | 355° |
| 2026-05-05 15:36 | 46.57889 | 6.07260 | 36835 ft | 478 kts | 355° |
| 2026-05-05 15:36 | 46.61217 | 6.07087 | 37168 ft | 477 kts | 355° |
| 2026-05-05 15:36 | 46.64538 | 6.06916 | 37483 ft | 477 kts | 355° |
| 2026-05-05 15:37 | 46.67857 | 6.06746 | 37794 ft | 477 kts | 355° |
| 2026-05-05 15:37 | 46.74486 | 6.06411 | 37901 ft | 476 kts | 355° |
| 2026-05-05 15:38 | 46.81107 | 6.06071 | 37887 ft | 475 kts | 355° |
| 2026-05-05 15:38 | 46.87716 | 6.05730 | 37893 ft | 475 kts | 355° |
| 2026-05-05 15:39 | 46.94326 | 6.05386 | 37889 ft | 476 kts | 355° |
| 2026-05-05 15:39 | 47.00943 | 6.05049 | 37881 ft | 476 kts | 356° |
| 2026-05-05 15:40 | 47.07562 | 6.04709 | 37885 ft | 476 kts | 356° |
| 2026-05-05 15:40 | 47.14185 | 6.04360 | 37884 ft | 476 kts | 356° |
| 2026-05-05 15:41 | 47.20813 | 6.04009 | 37879 ft | 476 kts | 356° |
| 2026-05-05 15:41 | 47.27443 | 6.03657 | 37876 ft | 477 kts | 356° |
| 2026-05-05 15:42 | 47.34076 | 6.03308 | 37866 ft | 477 kts | 356° |
| 2026-05-05 15:42 | 47.40722 | 6.03203 | 37866 ft | 478 kts | 359° |
| 2026-05-05 15:43 | 47.47378 | 6.03460 | 37864 ft | 478 kts | 0° |
| 2026-05-05 15:43 | 47.54033 | 6.03715 | 37863 ft | 478 kts | 359° |
| 2026-05-05 15:44 | 47.60688 | 6.03873 | 37862 ft | 478 kts | 359° |
| 2026-05-05 15:44 | 47.67340 | 6.04002 | 37867 ft | 478 kts | 359° |
| 2026-05-05 15:45 | 47.73996 | 6.04143 | 37865 ft | 478 kts | 359° |
| 2026-05-05 15:45 | 47.80645 | 6.04312 | 37868 ft | 478 kts | 360° |
| 2026-05-05 15:46 | 47.87304 | 6.04535 | 37864 ft | 478 kts | 0° |
| 2026-05-05 15:46 | 47.93951 | 6.04762 | 37856 ft | 478 kts | 0° |
| 2026-05-05 15:47 | 48.00601 | 6.04968 | 37851 ft | 478 kts | 0° |
| 2026-05-05 15:47 | 48.07257 | 6.05175 | 37837 ft | 478 kts | 0° |
| 2026-05-05 15:48 | 48.13906 | 6.05385 | 37837 ft | 478 kts | 0° |
| 2026-05-05 15:48 | 48.20521 | 6.05590 | 37839 ft | 478 kts | 360° |
| 2026-05-05 15:49 | 48.27180 | 6.05790 | 37838 ft | 478 kts | 0° |
| 2026-05-05 15:49 | 48.33848 | 6.06011 | 37838 ft | 478 kts | 0° |
| 2026-05-05 15:50 | 48.40507 | 6.06314 | 37838 ft | 479 kts | 1° |
| 2026-05-05 15:50 | 48.47160 | 6.06657 | 37836 ft | 478 kts | 1° |
| 2026-05-05 15:51 | 48.53821 | 6.06996 | 37839 ft | 478 kts | 0° |
| 2026-05-05 15:51 | 48.60471 | 6.07306 | 37845 ft | 478 kts | 0° |
| 2026-05-05 15:52 | 48.67120 | 6.07619 | 37844 ft | 478 kts | 0° |
| 2026-05-05 15:52 | 48.73762 | 6.07932 | 37846 ft | 477 kts | 0° |
| 2026-05-05 15:53 | 48.80398 | 6.08245 | 37845 ft | 476 kts | 1° |
| 2026-05-05 15:53 | 48.87021 | 6.08564 | 37849 ft | 476 kts | 1° |
| 2026-05-05 15:54 | 48.92518 | 6.08829 | 37852 ft | 475 kts | 1° |
| 2026-05-05 15:54 | 48.99122 | 6.09148 | 37852 ft | 475 kts | 1° |
| 2026-05-05 15:55 | 49.05728 | 6.09467 | 37854 ft | 475 kts | 1° |
| 2026-05-05 15:55 | 49.12336 | 6.09785 | 37847 ft | 474 kts | 1° |
| 2026-05-05 15:56 | 49.18921 | 6.10111 | 37829 ft | 473 kts | 1° |
| 2026-05-05 15:56 | 49.25505 | 6.10436 | 37825 ft | 473 kts | 1° |
| 2026-05-05 15:57 | 49.32079 | 6.10750 | 37820 ft | 473 kts | 1° |
| 2026-05-05 15:57 | 49.38665 | 6.11068 | 37831 ft | 473 kts | 1° |
| 2026-05-05 15:58 | 49.45251 | 6.11391 | 37833 ft | 473 kts | 1° |
| 2026-05-05 15:58 | 49.51835 | 6.11690 | 37835 ft | 473 kts | 0° |
| 2026-05-05 15:59 | 49.58412 | 6.11929 | 37833 ft | 473 kts | 0° |
| 2026-05-05 15:59 | 49.64992 | 6.12167 | 37835 ft | 472 kts | 0° |
| 2026-05-05 16:00 | 49.71568 | 6.12414 | 37830 ft | 472 kts | 0° |
| 2026-05-05 16:00 | 49.78134 | 6.12666 | 37833 ft | 472 kts | 1° |
| 2026-05-05 16:01 | 49.84710 | 6.12921 | 37826 ft | 472 kts | 1° |
| 2026-05-05 16:01 | 49.88012 | 6.13040 | 37211 ft | 477 kts | 0° |
| 2026-05-05 16:01 | 49.91329 | 6.13102 | 36489 ft | 476 kts | 0° |
| 2026-05-05 16:01 | 49.94640 | 6.13113 | 35792 ft | 476 kts | 0° |
| 2026-05-05 16:02 | 49.97959 | 6.13100 | 35117 ft | 476 kts | 0° |
| 2026-05-05 16:02 | 50.01276 | 6.13084 | 34457 ft | 478 kts | 1° |
| 2026-05-05 16:02 | 50.04609 | 6.13078 | 33811 ft | 479 kts | 1° |
| 2026-05-05 16:02 | 50.07909 | 6.13085 | 33073 ft | 481 kts | 1° |
| 2026-05-05 16:03 | 50.11255 | 6.13103 | 32344 ft | 481 kts | 1° |
| 2026-05-05 16:03 | 50.14604 | 6.13128 | 31637 ft | 480 kts | 2° |
| 2026-05-05 16:03 | 50.17941 | 6.13158 | 30969 ft | 480 kts | 1° |
| 2026-05-05 16:03 | 50.21274 | 6.13189 | 30352 ft | 479 kts | 1° |
| 2026-05-05 16:04 | 50.24603 | 6.13268 | 29713 ft | 477 kts | 5° |
| 2026-05-05 16:04 | 50.27883 | 6.13951 | 29005 ft | 474 kts | 13° |
| 2026-05-05 16:04 | 50.31029 | 6.15370 | 28315 ft | 468 kts | 22° |
| 2026-05-05 16:04 | 50.33966 | 6.17475 | 27639 ft | 462 kts | 31° |
| 2026-05-05 16:05 | 50.36669 | 6.20142 | 26980 ft | 457 kts | 35° |
| 2026-05-05 16:05 | 50.39306 | 6.22874 | 26334 ft | 453 kts | 35° |
| 2026-05-05 16:05 | 50.41930 | 6.25582 | 25698 ft | 449 kts | 34° |
| 2026-05-05 16:05 | 50.44539 | 6.28264 | 25080 ft | 446 kts | 34° |
| 2026-05-05 16:06 | 50.47123 | 6.30919 | 24478 ft | 442 kts | 34° |
| 2026-05-05 16:06 | 50.49685 | 6.33556 | 23893 ft | 439 kts | 34° |
| 2026-05-05 16:06 | 50.52270 | 6.36091 | 23287 ft | 436 kts | 32° |
| 2026-05-05 16:06 | 50.54869 | 6.38500 | 22610 ft | 433 kts | 31° |
| 2026-05-05 16:07 | 50.57477 | 6.40843 | 21937 ft | 428 kts | 31° |
| 2026-05-05 16:07 | 50.60060 | 6.43140 | 21288 ft | 425 kts | 31° |
| 2026-05-05 16:07 | 50.62627 | 6.45437 | 20649 ft | 421 kts | 31° |
| 2026-05-05 16:07 | 50.65166 | 6.47739 | 20028 ft | 418 kts | 31° |
| 2026-05-05 16:08 | 50.67671 | 6.50044 | 19418 ft | 416 kts | 31° |
| 2026-05-05 16:08 | 50.70135 | 6.52334 | 18825 ft | 414 kts | 31° |
| 2026-05-05 16:08 | 50.72608 | 6.54641 | 18234 ft | 413 kts | 31° |
| 2026-05-05 16:08 | 50.75081 | 6.56948 | 17577 ft | 411 kts | 31° |
| 2026-05-05 16:09 | 50.77554 | 6.59254 | 16919 ft | 410 kts | 31° |
| 2026-05-05 16:09 | 50.80003 | 6.61525 | 16266 ft | 407 kts | 30° |
| 2026-05-05 16:09 | 50.82590 | 6.63329 | 15629 ft | 405 kts | 18° |
| 2026-05-05 16:09 | 50.84989 | 6.64231 | 15086 ft | 403 kts | 8° |
| 2026-05-05 16:10 | 50.87765 | 6.64815 | 14476 ft | 400 kts | 7° |
| 2026-05-05 16:10 | 50.90513 | 6.65377 | 13878 ft | 397 kts | 7° |
| 2026-05-05 16:10 | 50.93239 | 6.65930 | 13239 ft | 393 kts | 7° |
| 2026-05-05 16:10 | 50.95923 | 6.66478 | 12562 ft | 381 kts | 7° |
| 2026-05-05 16:11 | 50.98498 | 6.67010 | 11918 ft | 365 kts | 7° |
| 2026-05-05 16:11 | 51.05655 | 6.68533 | 10061 ft | 330 kts | 7° |
| 2026-05-05 16:12 | 51.07905 | 6.69027 | 9436 ft | 322 kts | 7° |
| 2026-05-05 16:12 | 51.12048 | 6.70956 | 8139 ft | 307 kts | 36° |
| 2026-05-05 16:13 | 51.16794 | 6.77136 | 7376 ft | 289 kts | 40° |
| 2026-05-05 16:13 | 51.18333 | 6.79185 | 7028 ft | 287 kts | 40° |
| 2026-05-05 16:13 | 51.19858 | 6.81222 | 6684 ft | 285 kts | 40° |
| 2026-05-05 16:14 | 51.22869 | 6.85259 | 5991 ft | 278 kts | 41° |
| 2026-05-05 16:14 | 51.24407 | 6.90528 | 5270 ft | 269 kts | 95° |
| 2026-05-05 16:15 | 51.22482 | 6.95257 | 5002 ft | 265 kts | 154° |
| 2026-05-05 16:15 | 51.18965 | 6.95073 | 5002 ft | 264 kts | 212° |
| 2026-05-05 16:16 | 51.16943 | 6.90345 | 4819 ft | 266 kts | 250° |
| 2026-05-05 16:16 | 51.15862 | 6.84704 | 4459 ft | 265 kts | 253° |
| 2026-05-05 16:17 | 51.14828 | 6.79037 | 4173 ft | 266 kts | 253° |
| 2026-05-05 16:17 | 51.14319 | 6.76243 | 4042 ft | 266 kts | 253° |
| 2026-05-05 16:18 | 51.13284 | 6.70601 | 3765 ft | 261 kts | 253° |
| 2026-05-05 16:18 | 51.12784 | 6.67900 | 3606 ft | 248 kts | 253° |
| 2026-05-05 16:18 | 51.11847 | 6.62872 | 3307 ft | 227 kts | 255° |
| 2026-05-05 16:19 | 51.11576 | 6.60448 | 3155 ft | 218 kts | 263° |
| 2026-05-05 16:19 | 51.11670 | 6.58127 | 3046 ft | 207 kts | 292° |
| 2026-05-05 16:19 | 51.13692 | 6.55144 | 3011 ft | 200 kts | 329° |
| 2026-05-05 16:20 | 51.16307 | 6.54089 | 3008 ft | 196 kts | 7° |
| 2026-05-05 16:20 | 51.18700 | 6.55936 | 3004 ft | 194 kts | 46° |
| 2026-05-05 16:21 | 51.20362 | 6.59324 | 2653 ft | 190 kts | 53° |
| 2026-05-05 16:22 | 51.22656 | 6.64108 | 1918 ft | 169 kts | 53° |
| 2026-05-05 16:22 | 51.23969 | 6.66849 | 1494 ft | 146 kts | 52° |
| 2026-05-05 16:23 | 51.25077 | 6.69164 | 1148 ft | 122 kts | 51° |
| 2026-05-05 16:23 | 51.25591 | 6.70237 | 985 ft | 122 kts | 50° |
| 2026-05-05 16:23 | 51.26604 | 6.72355 | 671 ft | 119 kts | 48° |
| 2026-05-05 16:24 | 51.27108 | 6.73419 | 490 ft | 120 kts | 49° |
| 2026-05-05 16:24 | 51.27607 | 6.74475 | 338 ft | 118 kts | 49° |
| 2026-05-05 16:24 | 51.28575 | 6.76493 | 116 ft | 88 kts | 53° |
| 2026-05-05 16:25 | 51.28857 | 6.77081 | 117 ft | 50 kts | 52° |
| 2026-05-05 16:25 | 51.29013 | 6.77553 | 118 ft | 9 kts | 115° |
| 2026-05-05 16:25 | 51.28981 | 6.77600 | 116 ft | 3 kts | 145° |
| 2026-05-05 16:26 | 51.28919 | 6.77653 | 116 ft | 7 kts | 179° |
| 2026-05-05 16:26 | 51.28828 | 6.77483 | 118 ft | 15 kts | 232° |
| 2026-05-05 16:27 | 51.28752 | 6.77323 | 115 ft | 21 kts | 233° |